Time;durP1;ratioP1;P1;durP2;ratioP2;P2;SDS_P1;SDS_P2;PMS_P1;PMS_P2;Temp;Humidity;BMP_temperature;BMP_pressure;BME280_temperature;BME280_humidity;BME280_pressure;Samples;Min_cycle;Max_cycle;Signal;HPM_P1;HPM_P2
2021/09/25 00:01:18;;;;;;;9.13;4.35;;;17.10;99.90;;;;;;4133822;28;20030;-72
2021/09/25 00:03:19;;;;;;;6.63;3.85;;;17.10;99.90;;;;;;4124020;28;20582;-72
2021/09/25 00:05:20;;;;;;;6.80;3.80;;;17.10;99.90;;;;;;4122217;28;20116;-74
2021/09/25 00:07:21;;;;;;;4.53;4.07;;;17.10;99.90;;;;;;4132174;28;20068;-74
2021/09/25 00:09:22;;;;;;;10.30;3.70;;;17.10;99.90;;;;;;4134758;28;20042;-73
2021/09/25 00:11:24;;;;;;;9.27;3.85;;;17.10;99.90;;;;;;4133798;28;20069;-74
2021/09/25 00:13:25;;;;;;;8.43;4.53;;;17.20;99.90;;;;;;4118687;28;20205;-72
2021/09/25 00:15:29;;;;;;;9.10;4.35;;;17.10;99.90;;;;;;4134156;28;20037;-76
2021/09/25 00:17:30;;;;;;;6.93;4.15;;;17.20;99.90;;;;;;4118558;28;20038;-75
2021/09/25 00:19:31;;;;;;;5.55;3.72;;;17.20;99.90;;;;;;4135825;28;20045;-74
2021/09/25 00:21:32;;;;;;;9.00;4.65;;;17.20;99.90;;;;;;4133887;28;20374;-75
2021/09/25 00:23:33;;;;;;;6.53;4.50;;;17.20;99.90;;;;;;4133739;28;20057;-73
2021/09/25 00:25:34;;;;;;;5.00;4.28;;;17.20;99.90;;;;;;4134907;28;20037;-74
2021/09/25 00:27:36;;;;;;;6.53;4.40;;;17.20;99.90;;;;;;4135416;28;20042;-74
2021/09/25 00:29:37;;;;;;;9.25;4.63;;;17.10;99.90;;;;;;4136085;28;20074;-74
2021/09/25 00:31:38;;;;;;;11.57;5.20;;;17.10;99.90;;;;;;4133950;28;20591;-74
2021/09/25 00:33:39;;;;;;;8.48;4.43;;;17.10;99.90;;;;;;4134896;28;20064;-73
2021/09/25 00:35:39;;;;;;;6.45;3.97;;;17.10;99.90;;;;;;4134792;28;20080;-73
2021/09/25 00:37:41;;;;;;;7.93;4.47;;;17.10;99.90;;;;;;4134550;28;20373;-74
2021/09/25 00:39:41;;;;;;;8.65;4.05;;;17.10;99.90;;;;;;4117222;28;20730;-74
2021/09/25 00:41:42;;;;;;;10.18;4.50;;;17.00;99.90;;;;;;4133391;28;20070;-74
2021/09/25 00:43:43;;;;;;;8.82;4.53;;;17.00;99.90;;;;;;4134127;28;20056;-74
2021/09/25 00:45:44;;;;;;;7.03;4.20;;;17.00;99.90;;;;;;4117724;28;20460;-74
2021/09/25 00:47:46;;;;;;;7.32;4.57;;;17.00;99.90;;;;;;4136079;28;20049;-74
2021/09/25 00:49:48;;;;;;;6.05;4.15;;;17.00;99.90;;;;;;4108542;28;20073;-75
2021/09/25 00:51:49;;;;;;;6.38;4.72;;;17.00;99.90;;;;;;4135286;28;20037;-74
2021/09/25 00:53:50;;;;;;;6.63;4.32;;;17.10;99.90;;;;;;4116484;28;20088;-74
2021/09/25 00:55:52;;;;;;;8.60;4.18;;;17.00;99.90;;;;;;4131507;28;20412;-74
2021/09/25 00:58:02;;;;;;;7.53;4.78;;;17.00;99.90;;;;;;4109284;28;20382;-74
2021/09/25 01:00:06;;;;;;;8.70;4.75;;;17.00;99.90;;;;;;4133464;28;20100;-73
2021/09/25 01:02:06;;;;;;;10.80;4.80;;;17.00;99.90;;;;;;4134023;28;20053;-74
2021/09/25 01:04:08;;;;;;;7.70;4.60;;;16.90;99.90;;;;;;4132437;28;20042;-74
2021/09/25 01:06:09;;;;;;;8.82;4.57;;;16.90;99.90;;;;;;4132996;28;20651;-74
2021/09/25 01:08:13;;;;;;;10.18;4.80;;;16.90;99.90;;;;;;4133637;28;20049;-74
2021/09/25 01:10:15;;;;;;;7.57;4.30;;;17.00;99.90;;;;;;4117523;28;20114;-74
2021/09/25 01:12:16;;;;;;;7.90;4.70;;;17.00;99.90;;;;;;4132717;28;20059;-72
2021/09/25 01:14:17;;;;;;;8.43;4.40;;;16.90;99.90;;;;;;4134589;28;20408;-72
2021/09/25 01:16:18;;;;;;;9.07;4.97;;;16.80;99.90;;;;;;4133513;28;20708;-72
2021/09/25 01:18:19;;;;;;;7.07;4.53;;;16.80;99.90;;;;;;4133912;28;20096;-72
2021/09/25 01:20:20;;;;;;;7.85;4.90;;;16.70;99.90;;;;;;4118304;28;20129;-73
2021/09/25 01:22:22;;;;;;;6.80;4.55;;;16.70;99.90;;;;;;4135392;28;20453;-74
2021/09/25 01:24:23;;;;;;;9.65;5.47;;;16.70;99.90;;;;;;4133929;28;20508;-74
2021/09/25 01:26:25;;;;;;;10.50;5.00;;;16.70;99.90;;;;;;4133811;28;20091;-74
2021/09/25 01:28:28;;;;;;;7.50;4.95;;;16.70;99.90;;;;;;4134440;28;20169;-73
2021/09/25 01:30:29;;;;;;;7.07;4.78;;;16.70;99.90;;;;;;4134328;28;20034;-74
2021/09/25 01:32:30;;;;;;;7.68;5.25;;;16.70;99.90;;;;;;4133854;28;20033;-73
2021/09/25 01:34:31;;;;;;;6.53;5.28;;;16.80;99.90;;;;;;4133159;28;20049;-74
2021/09/25 01:36:32;;;;;;;8.52;5.55;;;16.80;99.90;;;;;;4133953;28;20477;-73
2021/09/25 01:38:33;;;;;;;7.60;6.25;;;16.70;99.90;;;;;;4133431;28;20092;-74
2021/09/25 01:40:34;;;;;;;9.95;5.40;;;16.60;99.90;;;;;;4133958;28;20385;-74
2021/09/25 01:42:36;;;;;;;10.27;4.97;;;16.60;99.90;;;;;;4133217;28;20041;-74
2021/09/25 01:44:37;;;;;;;9.40;5.68;;;16.60;99.90;;;;;;4133892;28;20038;-74
2021/09/25 01:46:37;;;;;;;10.60;5.57;;;16.60;99.90;;;;;;4133774;28;20041;-74
2021/09/25 01:48:38;;;;;;;13.93;6.07;;;16.60;99.90;;;;;;4122738;28;20039;-74
2021/09/25 01:50:40;;;;;;;8.90;5.80;;;16.70;99.90;;;;;;4133157;28;20057;-74
2021/09/25 01:52:43;;;;;;;8.80;5.70;;;16.70;99.90;;;;;;4136852;28;20102;-74
2021/09/25 01:54:44;;;;;;;10.52;6.10;;;16.70;99.90;;;;;;4115680;28;20118;-74
2021/09/25 01:56:46;;;;;;;8.20;5.68;;;16.60;99.90;;;;;;4133234;28;20050;-74
2021/09/25 01:58:46;;;;;;;10.23;6.22;;;16.60;99.90;;;;;;4136898;28;20041;-74
2021/09/25 02:00:47;;;;;;;9.52;6.63;;;16.70;99.90;;;;;;4137009;28;22239;-72
2021/09/25 02:02:48;;;;;;;12.65;6.82;;;16.60;99.90;;;;;;4137389;28;20548;-72
2021/09/25 02:04:49;;;;;;;13.35;6.38;;;16.60;99.90;;;;;;4136556;28;20052;-73
2021/09/25 02:06:50;;;;;;;9.55;6.40;;;16.50;99.90;;;;;;4137722;28;20038;-73
2021/09/25 02:08:51;;;;;;;10.48;6.57;;;16.60;99.90;;;;;;4136226;28;20096;-74
2021/09/25 02:10:52;;;;;;;10.07;7.20;;;16.70;99.90;;;;;;4124007;28;20095;-74
2021/09/25 02:12:53;;;;;;;10.18;6.53;;;16.70;99.90;;;;;;4136579;28;20045;-74
2021/09/25 02:14:54;;;;;;;11.88;7.28;;;16.70;99.90;;;;;;4136322;28;20046;-74
2021/09/25 02:16:55;;;;;;;11.32;6.93;;;16.70;99.90;;;;;;4137115;28;20484;-74
2021/09/25 02:18:56;;;;;;;9.73;6.60;;;16.60;99.90;;;;;;4138199;28;20034;-74
2021/09/25 02:20:56;;;;;;;12.82;7.28;;;16.70;99.90;;;;;;4136591;28;20096;-74
2021/09/25 02:22:57;;;;;;;10.40;7.13;;;16.70;99.90;;;;;;4136668;28;20041;-74
2021/09/25 02:24:58;;;;;;;11.55;8.00;;;16.70;99.90;;;;;;4136886;28;20071;-73
2021/09/25 02:26:59;;;;;;;12.55;7.38;;;16.50;99.90;;;;;;4119457;28;20041;-74
2021/09/25 02:28:59;;;;;;;10.52;7.70;;;16.50;99.90;;;;;;4138704;28;20509;-74
2021/09/25 02:31:02;;;;;;;10.85;7.70;;;16.40;99.90;;;;;;4112865;28;20035;-73
2021/09/25 02:33:03;;;;;;;13.37;8.20;;;16.30;99.90;;;;;;4143636;28;20052;-74
2021/09/25 02:35:05;;;;;;;14.40;8.18;;;16.30;99.90;;;;;;4135881;28;20037;-74
2021/09/25 02:37:06;;;;;;;14.02;7.35;;;16.30;99.90;;;;;;4137484;28;20088;-74
2021/09/25 02:39:07;;;;;;;9.65;6.57;;;16.30;99.90;;;;;;4119959;28;20572;-74
2021/09/25 02:41:08;;;;;;;18.55;8.13;;;16.30;99.90;;;;;;4130177;28;20129;-74
2021/09/25 02:43:09;;;;;;;12.50;7.55;;;16.40;99.90;;;;;;4135818;28;20176;-75
2021/09/25 02:45:11;;;;;;;14.60;8.30;;;16.40;99.90;;;;;;4134802;28;20085;-75
2021/09/25 02:47:12;;;;;;;12.38;7.97;;;16.40;99.90;;;;;;4151709;28;20052;-75
2021/09/25 02:49:16;;;;;;;12.23;8.00;;;16.30;99.90;;;;;;4136446;28;20084;-74
2021/09/25 02:51:17;;;;;;;19.35;8.93;;;16.30;99.90;;;;;;4152206;28;20099;-74
2021/09/25 02:53:18;;;;;;;10.82;7.75;;;16.20;99.90;;;;;;4135984;28;20030;-74
2021/09/25 02:55:19;;;;;;;16.35;8.43;;;16.40;99.90;;;;;;4138472;28;20025;-74
2021/09/25 02:57:20;;;;;;;13.32;8.35;;;16.40;99.90;;;;;;4136883;28;20133;-73
2021/09/25 02:59:20;;;;;;;14.27;8.73;;;16.30;99.90;;;;;;4135412;28;20120;-73
2021/09/25 03:01:21;;;;;;;12.63;7.85;;;16.40;99.90;;;;;;4134421;28;20045;-73
2021/09/25 03:03:22;;;;;;;12.57;9.05;;;16.30;99.90;;;;;;4138050;28;20131;-74
2021/09/25 03:05:23;;;;;;;14.07;7.97;;;16.30;99.90;;;;;;4120703;28;20046;-74
2021/09/25 03:07:23;;;;;;;11.27;9.73;;;16.10;99.90;;;;;;4134719;28;20038;-74
2021/09/25 03:09:24;;;;;;;14.80;9.30;;;16.00;99.90;;;;;;4150193;28;20033;-75
2021/09/25 03:11:25;;;;;;;12.90;8.82;;;15.90;99.90;;;;;;4137769;28;20045;-74
2021/09/25 03:13:26;;;;;;;12.60;7.75;;;15.90;99.90;;;;;;4135548;28;20042;-74
2021/09/25 03:15:26;;;;;;;13.25;8.80;;;15.90;99.90;;;;;;4133016;28;20037;-72
2021/09/25 03:17:27;;;;;;;13.18;9.50;;;15.80;99.90;;;;;;4106497;28;20125;-73
2021/09/25 03:19:28;;;;;;;13.55;10.90;;;15.70;99.90;;;;;;4133323;28;20761;-75
2021/09/25 03:21:29;;;;;;;14.93;10.13;;;15.70;99.90;;;;;;4134158;28;20038;-74
2021/09/25 03:23:29;;;;;;;14.82;10.23;;;15.70;99.90;;;;;;4134954;28;20048;-75
2021/09/25 03:25:30;;;;;;;20.52;11.75;;;15.70;99.90;;;;;;4134376;28;20054;-73
2021/09/25 03:27:31;;;;;;;16.77;9.93;;;15.80;99.90;;;;;;4133093;28;20780;-73
2021/09/25 03:29:32;;;;;;;13.85;10.65;;;15.90;99.90;;;;;;4136806;28;20038;-75
2021/09/25 03:31:33;;;;;;;19.35;11.85;;;15.90;99.90;;;;;;4129009;28;20058;-73
2021/09/25 03:33:33;;;;;;;13.05;10.52;;;15.90;99.90;;;;;;4105507;28;20058;-74
2021/09/25 03:35:34;;;;;;;16.75;11.73;;;16.00;99.90;;;;;;4143602;28;20045;-74
2021/09/25 03:37:35;;;;;;;13.80;11.02;;;16.00;99.90;;;;;;4125413;28;20161;-74
2021/09/25 03:39:36;;;;;;;18.00;11.48;;;16.00;99.90;;;;;;4132830;28;20070;-73
2021/09/25 03:41:37;;;;;;;17.63;12.57;;;15.90;99.90;;;;;;4135027;28;20045;-75
2021/09/25 03:43:38;;;;;;;18.40;11.88;;;15.90;99.90;;;;;;4134096;28;20065;-74
2021/09/25 03:45:39;;;;;;;20.38;11.65;;;15.90;99.90;;;;;;4133941;28;20038;-75
2021/09/25 03:47:40;;;;;;;15.68;11.85;;;15.80;99.90;;;;;;4134701;28;20458;-75
2021/09/25 03:49:41;;;;;;;18.15;12.38;;;15.80;99.90;;;;;;4134902;28;20425;-74
2021/09/25 03:51:42;;;;;;;15.43;12.95;;;15.70;99.90;;;;;;4134975;28;20109;-74
2021/09/25 03:53:43;;;;;;;17.80;13.40;;;15.80;99.90;;;;;;4133604;28;20436;-74
2021/09/25 03:55:43;;;;;;;18.40;13.02;;;15.80;99.90;;;;;;4136153;28;20428;-74
2021/09/25 03:57:44;;;;;;;18.45;13.75;;;15.80;99.90;;;;;;4134222;28;20046;-75
2021/09/25 03:59:45;;;;;;;15.73;12.10;;;15.90;99.90;;;;;;4136293;28;20045;-75
2021/09/25 04:01:46;;;;;;;18.67;12.43;;;15.90;99.90;;;;;;4133746;28;20050;-74
2021/09/25 04:03:47;;;;;;;18.33;13.82;;;16.00;99.90;;;;;;4135639;28;20041;-75
2021/09/25 04:05:48;;;;;;;21.08;13.20;;;16.10;99.90;;;;;;4134944;28;20052;-74
2021/09/25 04:07:49;;;;;;;22.33;13.77;;;16.10;99.90;;;;;;4134041;28;20037;-75
2021/09/25 04:09:50;;;;;;;21.83;13.05;;;16.10;99.90;;;;;;4133610;28;20523;-74
2021/09/25 04:11:50;;;;;;;18.52;13.05;;;16.20;99.90;;;;;;4134589;28;20045;-74
2021/09/25 04:13:52;;;;;;;22.92;13.98;;;16.20;99.90;;;;;;4136507;28;20030;-74
2021/09/25 04:15:52;;;;;;;20.77;13.93;;;16.20;99.90;;;;;;4134721;28;20038;-74
2021/09/25 04:17:53;;;;;;;19.75;12.95;;;16.20;99.90;;;;;;4134322;28;20113;-74
2021/09/25 04:19:54;;;;;;;19.98;13.95;;;16.10;99.90;;;;;;4122127;28;20038;-74
2021/09/25 04:21:55;;;;;;;18.73;14.80;;;16.10;99.90;;;;;;4133945;28;20037;-74
2021/09/25 04:23:56;;;;;;;21.92;13.73;;;16.10;99.90;;;;;;4118839;28;20406;-74
2021/09/25 04:25:57;;;;;;;21.83;12.88;;;16.10;99.90;;;;;;4118149;28;20054;-74
2021/09/25 04:28:00;;;;;;;25.77;14.60;;;16.00;99.90;;;;;;4135020;28;20080;-74
2021/09/25 04:30:03;;;;;;;19.08;13.95;;;16.00;99.90;;;;;;4134890;28;20030;-74
2021/09/25 04:32:04;;;;;;;19.15;14.20;;;15.90;99.90;;;;;;4125614;28;20049;-74
2021/09/25 04:34:05;;;;;;;17.92;13.13;;;16.00;99.90;;;;;;4135591;28;20022;-73
2021/09/25 04:36:06;;;;;;;27.10;14.98;;;16.10;99.90;;;;;;4134687;28;20040;-72
2021/09/25 04:38:07;;;;;;;19.42;14.85;;;16.00;99.90;;;;;;4135065;28;20050;-73
2021/09/25 04:40:08;;;;;;;27.30;16.08;;;15.90;99.90;;;;;;4135000;28;20373;-73
2021/09/25 04:42:09;;;;;;;19.75;13.52;;;16.00;99.90;;;;;;4136226;28;20045;-74
2021/09/25 04:44:14;;;;;;;20.15;13.57;;;15.90;99.90;;;;;;4134126;28;20067;-74
2021/09/25 04:46:15;;;;;;;23.63;14.43;;;16.00;99.90;;;;;;4109932;28;20113;-74
2021/09/25 04:48:15;;;;;;;26.02;15.75;;;15.90;99.90;;;;;;4135168;28;20501;-72
2021/09/25 04:50:17;;;;;;;25.70;15.57;;;16.10;99.90;;;;;;4133975;28;20050;-72
2021/09/25 04:52:18;;;;;;;19.58;13.90;;;16.00;99.90;;;;;;4135158;28;20042;-74
2021/09/25 04:54:19;;;;;;;24.02;15.80;;;15.90;99.90;;;;;;4135169;28;20696;-73
2021/09/25 04:56:20;;;;;;;20.95;14.55;;;16.00;99.90;;;;;;4135228;28;20045;-73
2021/09/25 04:58:27;;;;;;;22.73;15.35;;;15.90;99.90;;;;;;4133113;28;20045;-74
2021/09/25 05:00:28;;;;;;;25.90;14.48;;;16.00;99.90;;;;;;4118346;28;20857;-73
2021/09/25 05:02:29;;;;;;;20.55;14.15;;;15.90;99.90;;;;;;4119573;28;20038;-73
2021/09/25 05:04:30;;;;;;;20.85;15.65;;;15.90;99.90;;;;;;4133999;28;20026;-74
2021/09/25 05:06:31;;;;;;;22.15;17.17;;;15.90;99.90;;;;;;4135032;28;20108;-73
2021/09/25 05:08:32;;;;;;;27.05;16.60;;;15.80;99.90;;;;;;4133744;28;20064;-73
2021/09/25 05:10:32;;;;;;;21.02;15.20;;;15.90;99.90;;;;;;4132962;28;20061;-74
2021/09/25 05:12:33;;;;;;;24.98;16.52;;;15.80;99.90;;;;;;4134497;28;20034;-73
2021/09/25 05:14:34;;;;;;;22.40;15.77;;;15.80;99.90;;;;;;4118061;28;20042;-73
2021/09/25 05:16:35;;;;;;;25.00;15.90;;;15.90;99.90;;;;;;4134485;28;20034;-75
2021/09/25 05:18:37;;;;;;;24.42;15.57;;;15.90;99.90;;;;;;4151495;28;20048;-76
2021/09/25 05:20:38;;;;;;;24.30;15.82;;;15.80;99.90;;;;;;4136071;28;20045;-74
2021/09/25 05:22:38;;;;;;;22.00;16.92;;;15.90;99.90;;;;;;4136589;28;20038;-74
2021/09/25 05:24:39;;;;;;;21.77;15.32;;;16.00;99.90;;;;;;4113240;28;20042;-75
2021/09/25 05:26:41;;;;;;;19.75;15.45;;;16.00;99.90;;;;;;4120131;28;20112;-75
2021/09/25 05:28:42;;;;;;;20.55;16.88;;;16.00;99.90;;;;;;4123091;28;20039;-74
2021/09/25 05:30:42;;;;;;;27.73;17.00;;;16.00;99.90;;;;;;4134517;28;20042;-74
2021/09/25 05:32:43;;;;;;;21.30;15.63;;;16.00;99.90;;;;;;4122339;28;20042;-75
2021/09/25 05:34:44;;;;;;;20.58;16.67;;;16.00;99.90;;;;;;4120656;28;20038;-74
2021/09/25 05:36:45;;;;;;;25.77;16.42;;;16.00;99.90;;;;;;4137086;28;20049;-74
2021/09/25 05:38:45;;;;;;;24.00;16.45;;;16.00;99.90;;;;;;4134535;28;20041;-73
2021/09/25 05:40:46;;;;;;;24.92;16.98;;;16.00;99.90;;;;;;4137026;28;20073;-74
2021/09/25 05:42:47;;;;;;;30.15;17.77;;;16.00;99.90;;;;;;4137168;28;20056;-74
2021/09/25 05:44:49;;;;;;;24.63;16.42;;;16.00;99.90;;;;;;4136222;28;20057;-74
2021/09/25 05:46:50;;;;;;;22.05;16.48;;;16.10;99.90;;;;;;4135884;28;20120;-74
2021/09/25 05:48:52;;;;;;;26.92;17.85;;;16.10;99.90;;;;;;4137812;28;20465;-73
2021/09/25 05:50:53;;;;;;;25.52;17.52;;;16.10;99.90;;;;;;4135983;28;20109;-74
2021/09/25 05:52:54;;;;;;;22.42;16.13;;;16.00;99.90;;;;;;4136415;28;20072;-74
2021/09/25 05:54:54;;;;;;;27.35;17.00;;;16.00;99.90;;;;;;4135756;28;20060;-74
2021/09/25 05:56:55;;;;;;;27.77;17.77;;;16.00;99.90;;;;;;4120642;28;20054;-73
2021/09/25 05:58:56;;;;;;;26.35;17.60;;;16.00;99.90;;;;;;4153051;28;20037;-72
2021/09/25 06:00:57;;;;;;;27.65;18.90;;;16.00;99.90;;;;;;4137181;28;20132;-74
2021/09/25 06:03:00;;;;;;;28.52;16.42;;;16.10;99.90;;;;;;4133937;28;20057;-74
2021/09/25 06:05:03;;;;;;;22.75;17.80;;;16.10;99.90;;;;;;4134821;28;20049;-74
2021/09/25 06:07:05;;;;;;;24.92;18.20;;;16.00;99.90;;;;;;4120795;28;20038;-74
2021/09/25 06:09:06;;;;;;;28.08;18.17;;;16.00;99.90;;;;;;4134506;28;20053;-73
2021/09/25 06:11:07;;;;;;;29.35;18.73;;;16.10;99.90;;;;;;4152550;28;20057;-75
2021/09/25 06:13:10;;;;;;;29.40;17.15;;;16.00;99.90;;;;;;4137421;28;20050;-74
2021/09/25 06:15:11;;;;;;;23.25;17.85;;;16.10;99.90;;;;;;4121699;28;20066;-72
2021/09/25 06:17:12;;;;;;;22.45;18.13;;;16.10;99.90;;;;;;4137370;28;20037;-72
2021/09/25 06:19:14;;;;;;;22.80;18.08;;;16.20;99.90;;;;;;4136629;28;20152;-74
2021/09/25 06:21:15;;;;;;;24.33;18.25;;;16.20;99.90;;;;;;4135491;28;20030;-74
2021/09/25 06:23:16;;;;;;;26.38;18.60;;;16.10;99.90;;;;;;4136448;28;20125;-74
2021/09/25 06:25:16;;;;;;;23.65;16.95;;;16.10;99.90;;;;;;4135430;28;20042;-74
2021/09/25 06:27:18;;;;;;;23.98;17.90;;;16.10;99.90;;;;;;4135189;28;20142;-74
2021/09/25 06:29:18;;;;;;;26.85;18.00;;;16.10;99.90;;;;;;4120471;28;20050;-73
2021/09/25 06:31:19;;;;;;;28.38;18.88;;;16.10;99.90;;;;;;4134249;28;20046;-73
2021/09/25 06:33:20;;;;;;;28.20;18.58;;;16.10;99.90;;;;;;4136548;28;20128;-74
2021/09/25 06:35:21;;;;;;;31.33;18.63;;;16.10;99.90;;;;;;4135197;28;20172;-73
2021/09/25 06:37:22;;;;;;;24.58;18.42;;;16.10;99.90;;;;;;4136197;28;20045;-72
2021/09/25 06:39:23;;;;;;;33.88;18.30;;;16.10;99.90;;;;;;4135623;28;20030;-72
2021/09/25 06:41:24;;;;;;;26.25;18.65;;;16.20;99.90;;;;;;4134100;28;20034;-73
2021/09/25 06:43:25;;;;;;;27.58;19.83;;;16.20;99.90;;;;;;4118104;28;20572;-73
2021/09/25 06:45:32;;;;;;;23.00;17.42;;;16.20;99.90;;;;;;4133933;28;20030;-74
2021/09/25 06:47:33;;;;;;;21.75;17.30;;;16.30;99.90;;;;;;4137058;28;20091;-74
2021/09/25 06:49:34;;;;;;;24.67;17.65;;;16.30;99.90;;;;;;4134902;28;20055;-72
2021/09/25 06:51:35;;;;;;;21.55;17.77;;;16.30;99.90;;;;;;4135071;28;20049;-73
2021/09/25 06:53:36;;;;;;;23.50;16.42;;;16.30;99.90;;;;;;4116710;28;20057;-73
2021/09/25 06:55:37;;;;;;;21.25;15.95;;;16.30;99.90;;;;;;4134087;28;20044;-73
2021/09/25 06:57:38;;;;;;;22.90;17.88;;;16.30;99.90;;;;;;4134675;28;20034;-73
2021/09/25 06:59:39;;;;;;;27.02;17.60;;;16.30;99.90;;;;;;4135676;28;20034;-74
2021/09/25 07:01:39;;;;;;;24.40;17.77;;;16.40;99.90;;;;;;4133502;28;20049;-74
2021/09/25 07:03:41;;;;;;;23.63;16.88;;;16.40;99.90;;;;;;4135389;28;20547;-74
2021/09/25 07:05:41;;;;;;;22.08;16.95;;;16.50;99.90;;;;;;4135007;28;20133;-74
2021/09/25 07:07:43;;;;;;;27.48;17.63;;;16.50;99.90;;;;;;4135102;28;20128;-74
2021/09/25 07:09:45;;;;;;;21.00;16.13;;;16.50;99.90;;;;;;4135294;28;20042;-74
2021/09/25 07:11:45;;;;;;;24.48;16.63;;;16.60;99.90;;;;;;4135603;28;21985;-73
2021/09/25 07:13:46;;;;;;;22.00;16.52;;;16.70;99.90;;;;;;4133470;28;20057;-73
2021/09/25 07:15:47;;;;;;;32.20;16.80;;;16.70;99.90;;;;;;4135153;28;20045;-73
2021/09/25 07:17:47;;;;;;;22.20;15.90;;;16.80;99.90;;;;;;4118246;28;20432;-73
2021/09/25 07:19:48;;;;;;;22.40;16.73;;;16.80;99.90;;;;;;4151244;28;20104;-73
2021/09/25 07:21:49;;;;;;;25.75;17.08;;;16.90;99.90;;;;;;4119247;28;20058;-73
2021/09/25 07:23:49;;;;;;;25.05;16.63;;;16.90;99.90;;;;;;4133856;28;20049;-74
2021/09/25 07:25:50;;;;;;;20.92;15.32;;;17.00;99.90;;;;;;4136740;28;20083;-74
2021/09/25 07:27:51;;;;;;;21.40;15.30;;;17.00;99.90;;;;;;4133679;28;20467;-73
2021/09/25 07:29:53;;;;;;;21.75;15.52;;;17.10;99.90;;;;;;4136380;28;20042;-74
2021/09/25 07:31:54;;;;;;;23.90;16.35;;;17.10;99.90;;;;;;4134590;28;20057;-74
2021/09/25 07:33:55;;;;;;;22.73;15.20;;;17.10;99.90;;;;;;4136156;28;20074;-74
2021/09/25 07:35:55;;;;;;;20.80;16.10;;;17.10;99.90;;;;;;4133934;28;20042;-74
2021/09/25 07:37:56;;;;;;;21.05;15.80;;;17.10;99.90;;;;;;4134363;28;20038;-74
2021/09/25 07:39:57;;;;;;;29.48;16.90;;;17.20;99.90;;;;;;4134864;28;20044;-75
2021/09/25 07:41:58;;;;;;;23.30;15.25;;;17.10;99.90;;;;;;4135427;28;20076;-75
2021/09/25 07:43:59;;;;;;;18.05;14.60;;;17.10;99.90;;;;;;4136512;28;20103;-74
2021/09/25 07:46:00;;;;;;;18.33;15.80;;;17.10;99.90;;;;;;4135716;28;20037;-75
2021/09/25 07:48:02;;;;;;;22.60;16.10;;;17.20;99.90;;;;;;4135425;28;20058;-73
2021/09/25 07:50:08;;;;;;;19.60;15.55;;;17.20;99.90;;;;;;4148702;28;20095;-74
2021/09/25 07:52:09;;;;;;;18.15;15.23;;;17.30;99.90;;;;;;4134572;28;20029;-74
2021/09/25 07:54:09;;;;;;;19.58;14.88;;;17.40;99.90;;;;;;4135738;28;20543;-74
2021/09/25 07:56:10;;;;;;;20.20;15.77;;;17.40;99.90;;;;;;4135786;28;20037;-74
2021/09/25 07:58:11;;;;;;;22.08;15.00;;;17.40;99.90;;;;;;4125702;28;20038;-73
2021/09/25 08:00:14;;;;;;;18.50;15.18;;;17.50;99.90;;;;;;4144181;28;20025;-73
2021/09/25 08:02:15;;;;;;;20.45;16.27;;;17.50;99.90;;;;;;4133958;28;20645;-74
2021/09/25 08:04:16;;;;;;;27.20;16.25;;;17.50;99.90;;;;;;4135728;28;20061;-73
2021/09/25 08:06:19;;;;;;;21.85;15.82;;;17.50;99.90;;;;;;4149815;28;20068;-74
2021/09/25 08:08:19;;;;;;;24.85;16.85;;;17.50;99.90;;;;;;4134342;28;20712;-74
2021/09/25 08:10:20;;;;;;;24.30;15.48;;;17.60;99.90;;;;;;4134310;28;20124;-74
2021/09/25 08:12:21;;;;;;;18.35;15.73;;;17.60;99.90;;;;;;4117879;28;20046;-73
2021/09/25 08:14:22;;;;;;;21.42;16.60;;;17.60;99.90;;;;;;4132871;28;20053;-74
2021/09/25 08:16:24;;;;;;;23.48;15.52;;;17.80;99.90;;;;;;4131927;28;20050;-74
2021/09/25 08:18:26;;;;;;;25.80;15.77;;;17.70;99.90;;;;;;4134834;28;20041;-74
2021/09/25 08:20:27;;;;;;;19.10;15.65;;;17.80;99.90;;;;;;4131769;28;20041;-74
2021/09/25 08:22:27;;;;;;;21.05;14.50;;;17.90;99.90;;;;;;4123144;28;20120;-74
2021/09/25 08:24:29;;;;;;;22.13;16.08;;;18.00;99.90;;;;;;4108729;28;20046;-74
2021/09/25 08:26:30;;;;;;;18.02;15.55;;;18.00;99.90;;;;;;4124113;28;20069;-73
2021/09/25 08:28:31;;;;;;;23.00;13.82;;;18.00;99.90;;;;;;4116955;28;20061;-73
2021/09/25 08:30:31;;;;;;;22.88;17.33;;;18.10;99.90;;;;;;4125343;28;20126;-74
2021/09/25 08:32:32;;;;;;;16.23;13.40;;;18.10;99.90;;;;;;4125449;28;20113;-74
2021/09/25 08:34:34;;;;;;;25.13;15.07;;;18.10;99.90;;;;;;4129916;28;20154;-73
2021/09/25 08:36:34;;;;;;;27.60;15.43;;;18.20;99.90;;;;;;4117946;28;20046;-73
2021/09/25 08:38:35;;;;;;;20.58;15.00;;;18.30;99.90;;;;;;4132671;28;20512;-73
2021/09/25 08:40:36;;;;;;;26.42;16.10;;;18.30;99.90;;;;;;4133075;28;20056;-74
2021/09/25 08:42:37;;;;;;;23.02;16.30;;;18.40;99.90;;;;;;4132898;28;20121;-73
2021/09/25 08:44:41;;;;;;;21.75;14.93;;;18.40;99.90;;;;;;4135351;28;20037;-73
2021/09/25 08:46:42;;;;;;;23.80;15.18;;;18.50;99.90;;;;;;4135549;28;20045;-74
2021/09/25 08:48:43;;;;;;;20.50;14.52;;;18.50;99.90;;;;;;4133255;28;20052;-74
2021/09/25 08:50:44;;;;;;;17.77;15.13;;;18.50;99.90;;;;;;4134462;28;20045;-74
2021/09/25 08:52:45;;;;;;;18.10;15.68;;;18.60;99.90;;;;;;4133655;28;20045;-74
2021/09/25 08:54:46;;;;;;;21.60;15.00;;;18.60;99.90;;;;;;4134533;28;20041;-73
2021/09/25 08:56:47;;;;;;;21.13;14.50;;;18.60;99.90;;;;;;4132760;28;20539;-74
2021/09/25 08:58:48;;;;;;;20.50;15.40;;;18.60;99.90;;;;;;4133881;28;20042;-74
2021/09/25 09:00:52;;;;;;;20.15;16.15;;;18.70;99.90;;;;;;4133946;28;20049;-74
2021/09/25 09:02:53;;;;;;;21.40;15.20;;;18.80;99.90;;;;;;4134500;28;20120;-74
2021/09/25 09:04:55;;;;;;;18.27;14.00;;;18.80;99.90;;;;;;4134786;28;20041;-73
2021/09/25 09:06:56;;;;;;;18.58;15.50;;;18.80;99.90;;;;;;4133874;28;20113;-74
2021/09/25 09:09:01;;;;;;;19.52;14.93;;;18.70;99.90;;;;;;4135579;28;20088;-74
2021/09/25 09:11:02;;;;;;;20.73;14.02;;;18.60;99.90;;;;;;4133282;28;20045;-74
2021/09/25 09:13:05;;;;;;;19.10;14.73;;;18.60;99.90;;;;;;4116794;28;20042;-73
2021/09/25 09:15:07;;;;;;;23.58;14.35;;;18.60;99.90;;;;;;4131774;28;20417;-74
2021/09/25 09:17:07;;;;;;;22.00;15.13;;;18.60;99.90;;;;;;4132009;28;20037;-73
2021/09/25 09:19:08;;;;;;;21.75;14.75;;;18.60;99.90;;;;;;4133306;28;20026;-73
2021/09/25 09:21:13;;;;;;;18.48;13.57;;;18.40;99.90;;;;;;4135154;28;20179;-73
2021/09/25 09:23:18;;;;;;;22.15;15.00;;;18.40;99.90;;;;;;4134674;28;20033;-74
2021/09/25 09:25:19;;;;;;;19.65;14.80;;;18.50;99.90;;;;;;4132829;28;20437;-74
2021/09/25 09:27:26;;;;;;;17.40;15.02;;;18.50;99.90;;;;;;4132433;28;20112;-74
2021/09/25 09:29:32;;;;;;;19.77;13.45;;;18.70;99.90;;;;;;4132103;28;20183;-74
2021/09/25 09:31:38;;;;;;;21.60;15.23;;;18.80;99.90;;;;;;4132272;28;20168;-73
2021/09/25 09:33:46;;;;;;;22.45;16.02;;;18.80;99.90;;;;;;4132685;28;20034;-74
2021/09/25 09:35:47;;;;;;;21.33;15.98;;;18.90;99.90;;;;;;4133713;28;20037;-73
2021/09/25 09:37:55;;;;;;;28.33;17.27;;;18.80;99.90;;;;;;4134913;28;20602;-74
2021/09/25 09:40:02;;;;;;;23.33;15.13;;;18.70;99.90;;;;;;4132771;28;20033;-74
2021/09/25 09:42:03;;;;;;;20.42;17.00;;;18.70;99.90;;;;;;4134746;28;20052;-74
2021/09/25 09:44:14;;;;;;;18.77;15.77;;;18.70;99.90;;;;;;4133588;28;20124;-74
2021/09/25 09:46:15;;;;;;;21.92;16.67;;;18.70;99.90;;;;;;4133824;28;20044;-74
2021/09/25 09:48:20;;;;;;;20.42;17.13;;;18.60;99.90;;;;;;4132393;28;20057;-74
2021/09/25 09:50:20;;;;;;;20.38;16.20;;;18.60;99.90;;;;;;4149688;28;20156;-75
2021/09/25 09:52:22;;;;;;;32.35;19.35;;;18.70;99.90;;;;;;4132352;28;20116;-75
2021/09/25 09:54:32;;;;;;;26.77;17.98;;;18.80;99.90;;;;;;4124602;28;20062;-72
2021/09/25 09:56:32;;;;;;;23.25;18.42;;;18.90;99.90;;;;;;4112943;28;20038;-74
2021/09/25 09:58:33;;;;;;;23.40;18.15;;;19.20;99.90;;;;;;4102814;28;20070;-73
2021/09/25 10:00:36;;;;;;;22.05;17.27;;;19.30;99.90;;;;;;4103883;28;20042;-73
2021/09/25 10:02:37;;;;;;;21.75;17.60;;;19.50;99.90;;;;;;4102531;28;20548;-74
2021/09/25 10:04:39;;;;;;;20.98;17.92;;;19.70;99.90;;;;;;4104118;28;20038;-74
2021/09/25 10:06:40;;;;;;;25.92;18.80;;;19.80;99.90;;;;;;4102991;28;20513;-75
2021/09/25 10:08:42;;;;;;;20.88;16.73;;;20.00;99.90;;;;;;4103723;28;20149;-74
2021/09/25 10:10:42;;;;;;;25.52;17.35;;;20.20;99.90;;;;;;4104892;28;20049;-74
2021/09/25 10:12:45;;;;;;;22.98;18.13;;;20.40;99.90;;;;;;4105474;28;20116;-74
2021/09/25 10:14:47;;;;;;;23.73;17.67;;;20.50;99.90;;;;;;4089759;28;20052;-74
2021/09/25 10:16:50;;;;;;;21.67;17.73;;;20.50;99.90;;;;;;4140963;28;20045;-74
2021/09/25 10:18:54;;;;;;;;;;;20.40;99.90;;;;;;4134700;28;20054;-74
2021/09/25 10:20:54;;;;;;;23.17;18.80;;;20.50;99.90;;;;;;4133685;28;20320;-73